To NAV CANADA Home Page Login to a new session Search on AWWS site Disclaimer Vers la page française équivalente Tips FAQ What's new on the site To the Forecasts and Observations / NOTAM section To "File a Flight Plan" website Publications and other links Update of the User's profile FIC Telephone Numbers My Weather Data Folder Route Weather Data Regional Weather Data Local Weather Data To the Forecasts and Observations / NOTAM section
Request Generated 11/13/2018 at 18:03:43 UTC . Weather information available at that time is displayed.

METAR/TAF

TOFINO/LONG BEACH/BC    

METAR CYAZ 131800Z 12012KT 2SM -RA BR OVC016 09/08 A3028 RMK SC8 VIS LWR S-W SLP257=
SPECI CYAZ 131745Z 11012G19KT 1 1/2SM -RA BR OVC016 09/08 A3028 RMK SC8 SLP255=
SPECI CYAZ 131714Z 12010G19KT 3SM -RA OVC016 10/08 A3028 RMK SC8 SLP256=
METAR CYAZ 131700Z 13013KT 15SM OVC018 11/07 A3028 RMK SC8 SLP255=
METAR CYAZ 131600Z 11009KT 15SM BKN020 OVC027 11/06 A3027 RMK SC6SC2 SLP251=

TAF AMD CYAZ 131756Z 1318/1401 12012G22KT 5SM -RA BR SCT006 OVC015
TEMPO 1318/1401 1SM RA BR BKN005 OVC010
RMK NXT FCST WILL BE ISSUED AT 141645Z=
Your time UTC time
Weather data provided by Environment Canada and NAV CANADA